Time;durP1;ratioP1;P1;durP2;ratioP2;P2;SDS_P1;SDS_P2;PMS_P1;PMS_P2;Temp;Humidity;BMP_temperature;BMP_pressure;BME280_temperature;BME280_humidity;BME280_pressure;Samples;Min_cycle;Max_cycle;Signal;HPM_P1;HPM_P2
2022/08/08 00:00:00;;;;;;;;;;;20.20;99.90;;;;;;4594668;19;19919;-38
2022/08/08 00:01:38;;;;;;;;;;;20.30;99.90;;;;;;4594035;19;19922;-34
2022/08/08 00:03:27;;;;;;;;;;;20.30;99.90;;;;;;4594200;19;19917;-34
2022/08/08 00:05:18;;;;;;;;;;;20.30;99.90;;;;;;4593523;19;20336;-35
2022/08/08 00:07:08;;;;;;;;;;;20.30;99.90;;;;;;4593115;19;19982;-36
2022/08/08 00:09:01;;;;;;;;;;;20.20;99.90;;;;;;4592764;19;19923;-36
2022/08/08 00:10:50;;;;;;;;;;;20.20;99.90;;;;;;4592754;19;19915;-34
2022/08/08 00:12:28;;;;;;;;;;;20.20;99.90;;;;;;4593287;19;19914;-34
2022/08/08 00:14:03;;;;;;;;;;;20.20;99.90;;;;;;4594244;19;20317;-39
2022/08/08 00:15:36;;;;;;;;;;;20.20;99.90;;;;;;4593814;19;19930;-34
2022/08/08 00:17:06;;;;;;;;;;;20.20;99.90;;;;;;4592906;19;20304;-33
2022/08/08 00:18:41;;;;;;;;;;;20.20;99.90;;;;;;4593228;19;19932;-33
2022/08/08 00:20:12;;;;;;;;;;;20.20;99.90;;;;;;4594096;19;19915;-36
2022/08/08 00:21:50;;;;;;;;;;;20.20;99.90;;;;;;4592492;19;19978;-37
2022/08/08 00:23:30;;;;;;;;;;;20.20;99.90;;;;;;4593214;19;19941;-36
2022/08/08 00:25:06;;;;;;;;;;;20.20;99.90;;;;;;4593734;19;19926;-43
2022/08/08 00:26:40;;;;;;;;;;;20.20;99.90;;;;;;4592478;19;19919;-39
2022/08/08 00:28:12;;;;;;;;;;;20.20;99.90;;;;;;4591709;19;19915;-34
2022/08/08 00:29:52;;;;;;;;;;;20.20;99.90;;;;;;4592226;19;19932;-35
2022/08/08 00:31:23;;;;;;;;;;;20.20;99.90;;;;;;4593054;19;19911;-35
2022/08/08 00:32:56;;;;;;;;;;;20.20;99.90;;;;;;4590819;19;19911;-35
2022/08/08 00:36:23;;;;;;;;;;;20.20;99.90;;;;;;4590974;19;19915;-39
2022/08/08 00:38:03;;;;;;;;;;;20.20;99.90;;;;;;4591027;19;20005;-40
2022/08/08 00:39:43;;;;;;;;;;;20.20;99.90;;;;;;4591200;19;19927;-41
2022/08/08 00:41:14;;;;;;;;;;;20.20;99.90;;;;;;4591576;19;19931;-41
2022/08/08 00:42:45;;;;;;;;;;;20.20;99.90;;;;;;4591413;19;19921;-38
2022/08/08 00:44:37;;;;;;;;;;;20.20;99.90;;;;;;4589931;19;20344;-41
2022/08/08 00:46:26;;;;;;;;;;;20.20;99.90;;;;;;4591051;19;20257;-35
2022/08/08 00:48:05;;;;;;;;;;;20.20;99.90;;;;;;4590740;19;19911;-34
2022/08/08 00:49:39;;;;;;;;;;;20.20;99.90;;;;;;4589344;19;19945;-35
2022/08/08 00:51:28;;;;;;;;;;;20.20;99.90;;;;;;4590775;19;19978;-41
2022/08/08 00:53:08;;;;;;;;;;;20.20;99.90;;;;;;4590468;19;19910;-34
2022/08/08 00:54:48;;;;;;;;;;;20.20;99.90;;;;;;4590804;19;20427;-42
2022/08/08 00:56:34;;;;;;;;;;;20.20;99.90;;;;;;4590942;19;19915;-34
2022/08/08 00:58:10;;;;;;;;;;;20.20;99.90;;;;;;4590964;19;19945;-34
2022/08/08 00:59:53;;;;;;;;;;;20.20;99.90;;;;;;4590692;19;19922;-34
2022/08/08 01:01:27;;;;;;;;;;;20.20;99.90;;;;;;4590785;19;19926;-35
2022/08/08 01:03:23;;;;;;;;;;;20.20;99.90;;;;;;4590490;19;19915;-38
2022/08/08 01:05:13;;;;;;;;;;;20.20;99.90;;;;;;4590046;19;19970;-36
2022/08/08 01:06:59;;;;;;;;;;;20.20;99.90;;;;;;4589192;19;19918;-39
2022/08/08 01:08:30;;;;;;;;;;;20.20;99.90;;;;;;4589990;19;20359;-33
2022/08/08 01:10:10;;;;;;;;;;;20.20;99.90;;;;;;4590532;19;19915;-33
2022/08/08 01:11:47;;;;;;;;;;;20.10;99.90;;;;;;4590457;19;19915;-34
2022/08/08 01:13:47;;;;;;;;;;;20.20;99.90;;;;;;4590362;19;19921;-34
2022/08/08 01:15:33;;;;;;;;;;;20.20;99.90;;;;;;4589664;19;20325;-37
2022/08/08 01:17:07;;;;;;;;;;;20.10;99.90;;;;;;4590123;19;19922;-33
2022/08/08 01:18:56;;;;;;;;;;;20.10;99.90;;;;;;4590022;19;19914;-39
2022/08/08 01:20:46;;;;;;;;;;;20.10;99.90;;;;;;4589995;19;20363;-34
2022/08/08 01:22:20;;;;;;;;;;;20.10;99.90;;;;;;4590509;19;19922;-37
2022/08/08 01:23:51;;;;;;;;;;;20.10;99.90;;;;;;4589900;19;19929;-35
2022/08/08 01:25:40;;;;;;;;;;;20.10;99.90;;;;;;4590283;19;19919;-34
2022/08/08 01:27:14;;;;;;;;;;;20.10;99.90;;;;;;4589884;19;19921;-43
2022/08/08 01:29:03;;;;;;;;;;;20.10;99.90;;;;;;4589614;19;19978;-44
2022/08/08 01:30:52;;;;;;;;;;;20.10;99.90;;;;;;4590266;19;19936;-34
2022/08/08 01:32:39;;;;;;;;;;;20.10;99.90;;;;;;4589571;19;20311;-35
2022/08/08 01:34:39;;;;;;;;;;;20.10;99.90;;;;;;4589976;19;19923;-36
2022/08/08 01:36:29;;;;;;;;;;;20.10;99.90;;;;;;4589759;19;19915;-34
2022/08/08 01:38:18;;;;;;;;;;;20.10;99.90;;;;;;4589925;19;19915;-43
2022/08/08 01:39:52;;;;;;;;;;;20.10;99.90;;;;;;4589366;19;19998;-41
2022/08/08 01:41:46;;;;;;;;;;;20.10;99.90;;;;;;4589153;19;19921;-33
2022/08/08 01:43:36;;;;;;;;;;;20.10;99.90;;;;;;4589530;19;19923;-35
2022/08/08 01:45:26;;;;;;;;;;;20.10;99.90;;;;;;4589736;19;19914;-42
2022/08/08 01:47:14;;;;;;;;;;;20.10;99.90;;;;;;4589330;19;20320;-34
2022/08/08 01:48:48;;;;;;;;;;;20.00;99.90;;;;;;4588427;19;19977;-34
2022/08/08 01:50:19;;;;;;;;;;;20.10;99.90;;;;;;4589355;19;19979;-34
2022/08/08 01:51:59;;;;;;;;;;;20.00;99.90;;;;;;4589385;19;19926;-43
2022/08/08 01:53:30;;;;;;;;;;;20.00;99.90;;;;;;4588970;19;19982;-34
2022/08/08 01:55:06;;;;;;;;;;;20.00;99.90;;;;;;4588981;19;20320;-34
2022/08/08 01:56:49;;;;;;;;;;;20.10;99.90;;;;;;4588797;19;20040;-33
2022/08/08 01:58:22;;;;;;;;;;;20.10;99.90;;;;;;4589268;19;19925;-34
2022/08/08 01:59:53;;;;;;;;;;;20.10;99.90;;;;;;4589064;19;19915;-34
2022/08/08 02:01:28;;;;;;;;;;;20.00;99.90;;;;;;4586496;19;19922;-39
2022/08/08 02:03:04;;;;;;;;;;;20.00;99.90;;;;;;4589180;19;19970;-36
2022/08/08 02:04:41;;;;;;;;;;;20.00;99.90;;;;;;4589633;19;19915;-36
2022/08/08 02:06:15;;;;;;;;;;;20.00;99.90;;;;;;4589193;19;19939;-34
2022/08/08 02:07:55;;;;;;;;;;;20.00;99.90;;;;;;4588941;19;20328;-34
2022/08/08 02:09:29;;;;;;;;;;;20.00;99.90;;;;;;4588650;19;20333;-36
2022/08/08 02:11:00;;;;;;;;;;;20.00;99.90;;;;;;4589207;19;19979;-34
2022/08/08 02:12:47;;;;;;;;;;;20.00;99.90;;;;;;4588811;19;19932;-37
2022/08/08 02:14:33;;;;;;;;;;;20.00;99.90;;;;;;4589099;19;19919;-34
2022/08/08 02:16:06;;;;;;;;;;;20.00;99.90;;;;;;4588278;19;19942;-36
2022/08/08 02:17:45;;;;;;;;;;;20.00;99.90;;;;;;4588284;19;19923;-37
2022/08/08 02:19:23;;;;;;;;;;;20.00;99.90;;;;;;4588636;19;19919;-34
2022/08/08 02:23:04;;;;;;;;;;;20.00;99.90;;;;;;4591123;19;19914;-33
2022/08/08 02:24:41;;;;;;;;;;;20.00;99.90;;;;;;4590739;19;19934;-38
2022/08/08 02:26:29;;;;;;;;;;;20.00;99.90;;;;;;4589719;19;19933;-33
2022/08/08 02:28:00;;;;;;;;;;;19.90;99.90;;;;;;4589861;19;19965;-34
2022/08/08 02:29:39;;;;;;;;;;;19.90;99.90;;;;;;4590872;19;19919;-36
2022/08/08 02:31:19;;;;;;;;;;;19.90;99.90;;;;;;4589995;19;19914;-33
2022/08/08 02:32:59;;;;;;;;;;;20.00;99.90;;;;;;4590640;19;19918;-33
2022/08/08 02:34:38;;;;;;;;;;;20.00;99.90;;;;;;4590813;19;20328;-41
2022/08/08 02:36:22;;;;;;;;;;;19.90;99.90;;;;;;4589522;19;20340;-36
2022/08/08 02:38:18;;;;;;;;;;;20.00;99.90;;;;;;4590053;19;19919;-34
2022/08/08 02:40:19;;;;;;;;;;;19.90;99.90;;;;;;4591376;19;19970;-39
2022/08/08 02:41:54;;;;;;;;;;;19.90;99.90;;;;;;4590045;19;19930;-37
2022/08/08 02:43:44;;;;;;;;;;;19.90;99.90;;;;;;4589376;19;19915;-40
2022/08/08 02:45:34;;;;;;;;;;;19.90;99.90;;;;;;4590515;19;20332;-34
2022/08/08 02:47:23;;;;;;;;;;;19.90;99.90;;;;;;4590706;19;19911;-33
2022/08/08 02:49:14;;;;;;;;;;;19.90;99.90;;;;;;4589035;19;19915;-39
2022/08/08 02:50:45;;;;;;;;;;;19.90;99.90;;;;;;4590007;19;20249;-39
2022/08/08 02:52:45;;;;;;;;;;;19.90;99.90;;;;;;4590070;19;19978;-33
2022/08/08 02:54:24;;;;;;;;;;;19.90;99.90;;;;;;4586702;19;19921;-33
2022/08/08 02:56:13;;;;;;;;;;;19.90;99.90;;;;;;4589183;19;19930;-34
2022/08/08 02:58:03;;;;;;;;;;;19.90;99.90;;;;;;4590181;19;20252;-42
2022/08/08 02:59:37;;;;;;;;;;;19.90;99.90;;;;;;4590517;19;19927;-34
2022/08/08 03:01:11;;;;;;;;;;;19.90;99.90;;;;;;4590457;19;19918;-40
2022/08/08 03:02:54;;;;;;;;;;;19.90;99.90;;;;;;4591039;19;19974;-37
2022/08/08 03:04:24;;;;;;;;;;;19.80;99.90;;;;;;4591058;19;19915;-33
2022/08/08 03:06:01;;;;;;;;;;;19.80;99.90;;;;;;4590598;19;19929;-37
2022/08/08 03:07:32;;;;;;;;;;;19.80;99.90;;;;;;4590873;19;19915;-35
2022/08/08 03:09:10;;;;;;;;;;;19.90;99.90;;;;;;4589752;19;19919;-34
2022/08/08 03:10:49;;;;;;;;;;;19.90;99.90;;;;;;4590358;19;20037;-35
2022/08/08 03:12:35;;;;;;;;;;;19.80;99.90;;;;;;4590208;19;19960;-33
2022/08/08 03:14:25;;;;;;;;;;;19.90;99.90;;;;;;4595530;19;20327;-39
2022/08/08 03:16:06;;;;;;;;;;;19.80;99.90;;;;;;4596914;19;19919;-42
2022/08/08 03:17:54;;;;;;;;;;;19.80;99.90;;;;;;4594203;19;19925;-35
2022/08/08 03:19:49;;;;;;;;;;;19.90;99.90;;;;;;4593935;19;20319;-36
2022/08/08 03:21:19;;;;;;;;;;;19.90;99.90;;;;;;4594445;19;20229;-43
2022/08/08 03:22:51;;;;;;;;;;;19.90;99.90;;;;;;4594459;19;20384;-33
2022/08/08 03:24:22;;;;;;;;;;;19.90;99.90;;;;;;4594601;19;19931;-40
2022/08/08 03:25:55;;;;;;;;;;;19.90;99.90;;;;;;4592757;19;19914;-34
2022/08/08 03:27:26;;;;;;;;;;;19.90;99.90;;;;;;4592209;19;19989;-34
2022/08/08 03:28:58;;;;;;;;;;;19.90;99.90;;;;;;4591372;19;20346;-36
2022/08/08 03:30:29;;;;;;;;;;;19.90;99.90;;;;;;4591515;19;20303;-33
2022/08/08 03:33:50;;;;;;;;;;;19.90;99.90;;;;;;4593190;19;19927;-39
2022/08/08 03:35:21;;;;;;;;;;;19.90;99.90;;;;;;4594124;19;20297;-35
2022/08/08 03:36:52;;;;;;;;;;;19.90;99.90;;;;;;4593540;19;19933;-32
2022/08/08 03:38:23;;;;;;;;;;;19.90;99.90;;;;;;4594305;19;20328;-33
2022/08/08 03:39:54;;;;;;;;;;;19.90;99.90;;;;;;4593705;19;20402;-34
2022/08/08 03:41:32;;;;;;;;;;;19.90;99.90;;;;;;4593552;19;19990;-33
2022/08/08 03:43:03;;;;;;;;;;;19.90;99.90;;;;;;4593769;19;20462;-35
2022/08/08 03:44:34;;;;;;;;;;;19.90;99.90;;;;;;4592441;19;19926;-36
2022/08/08 03:46:05;;;;;;;;;;;19.90;99.90;;;;;;4593711;19;19931;-34
2022/08/08 03:47:36;;;;;;;;;;;20.00;99.90;;;;;;4594659;19;19918;-36
2022/08/08 03:49:07;;;;;;;;;;;20.00;99.90;;;;;;4592451;19;20371;-39
2022/08/08 03:50:45;;;;;;;;;;;20.00;99.90;;;;;;4592600;19;19910;-39
2022/08/08 03:52:16;;;;;;;;;;;20.00;99.90;;;;;;4593706;19;20336;-32
2022/08/08 03:53:48;;;;;;;;;;;20.00;99.90;;;;;;4593423;19;19915;-33
2022/08/08 03:55:19;;;;;;;;;;;20.10;99.90;;;;;;4593276;19;20272;-39
2022/08/08 03:56:50;;;;;;;;;;;20.00;99.90;;;;;;4594907;19;19915;-37
2022/08/08 03:58:21;;;;;;;;;;;20.10;99.90;;;;;;4593996;19;19919;-35
2022/08/08 03:59:53;;;;;;;;;;;20.00;99.90;;;;;;4595983;19;19922;-35
2022/08/08 04:01:23;;;;;;;;;;;20.10;99.90;;;;;;4595093;19;20344;-35
2022/08/08 04:02:57;;;;;;;;;;;20.10;99.90;;;;;;4594338;19;19911;-33
2022/08/08 04:04:35;;;;;;;;;;;20.10;99.90;;;;;;4595498;19;19932;-37
2022/08/08 04:06:06;;;;;;;;;;;20.10;99.90;;;;;;4596032;19;19923;-35
2022/08/08 04:07:37;;;;;;;;;;;20.10;99.90;;;;;;4595857;19;19911;-39
2022/08/08 04:09:08;;;;;;;;;;;20.10;99.90;;;;;;4594710;19;19913;-39
2022/08/08 04:10:39;;;;;;;;;;;20.10;99.90;;;;;;4592914;19;19914;-34
2022/08/08 04:12:10;;;;;;;;;;;20.10;99.90;;;;;;4594878;19;19974;-43
2022/08/08 04:13:41;;;;;;;;;;;20.10;99.90;;;;;;4594486;19;20020;-33
2022/08/08 04:15:12;;;;;;;;;;;20.10;99.90;;;;;;4593726;19;19906;-40
2022/08/08 04:16:43;;;;;;;;;;;20.10;99.90;;;;;;4593685;19;19967;-34
2022/08/08 04:18:14;;;;;;;;;;;20.20;99.90;;;;;;4593971;19;19923;-35
2022/08/08 04:19:45;;;;;;;;;;;20.40;99.90;;;;;;4595668;19;20252;-36
2022/08/08 04:21:16;;;;;;;;;;;20.60;99.90;;;;;;4592744;19;19939;-35
2022/08/08 04:22:47;;;;;;;;;;;20.70;99.90;;;;;;4593845;19;20329;-40
2022/08/08 04:24:18;;;;;;;;;;;20.80;99.90;;;;;;4590459;19;20380;-35
2022/08/08 04:25:49;;;;;;;;;;;20.90;99.90;;;;;;4592982;19;19919;-35
2022/08/08 04:27:20;;;;;;;;;;;20.90;99.90;;;;;;4593312;19;19922;-35
2022/08/08 04:28:51;;;;;;;;;;;21.00;99.90;;;;;;4591926;19;19915;-36
2022/08/08 04:30:22;;;;;;;;;;;21.00;99.90;;;;;;4590665;19;19914;-34
2022/08/08 04:31:53;;;;;;;;;;;20.90;99.90;;;;;;4593002;19;19911;-34
2022/08/08 04:33:24;;;;;;;;;;;20.70;99.90;;;;;;4591843;19;20240;-34
2022/08/08 04:34:55;;;;;;;;;;;20.60;99.90;;;;;;4592242;19;20238;-35
2022/08/08 04:36:26;;;;;;;;;;;20.50;99.90;;;;;;4593284;19;19919;-34
2022/08/08 04:37:57;;;;;;;;;;;20.50;99.90;;;;;;4593116;19;19925;-32
2022/08/08 04:39:28;;;;;;;;;;;20.40;99.90;;;;;;4592761;19;19906;-35
2022/08/08 04:40:59;;;;;;;;;;;20.40;99.90;;;;;;4593533;19;19914;-37
2022/08/08 04:42:32;;;;;;;;;;;20.40;99.90;;;;;;4592444;19;19919;-35
2022/08/08 04:44:03;;;;;;;;;;;20.30;99.90;;;;;;4591345;19;19923;-35
2022/08/08 04:45:34;;;;;;;;;;;20.40;99.90;;;;;;4593029;19;19932;-39
2022/08/08 04:47:06;;;;;;;;;;;20.30;99.90;;;;;;4591425;19;19923;-33
2022/08/08 04:48:37;;;;;;;;;;;20.30;99.90;;;;;;4591985;19;19918;-38
2022/08/08 04:50:08;;;;;;;;;;;20.30;99.90;;;;;;4593132;19;19919;-32
2022/08/08 04:51:39;;;;;;;;;;;20.40;99.90;;;;;;4593452;19;19922;-33
2022/08/08 04:53:09;;;;;;;;;;;20.30;99.90;;;;;;4592696;19;19991;-35
2022/08/08 04:54:41;;;;;;;;;;;20.30;99.90;;;;;;4592748;19;19941;-38
2022/08/08 04:56:12;;;;;;;;;;;20.40;99.90;;;;;;4592962;19;19911;-34
2022/08/08 04:57:43;;;;;;;;;;;20.40;99.90;;;;;;4593233;19;19915;-36
2022/08/08 04:59:13;;;;;;;;;;;20.40;99.90;;;;;;4592951;19;19966;-41
2022/08/08 05:00:45;;;;;;;;;;;20.50;99.90;;;;;;4591296;19;19919;-38
2022/08/08 05:02:16;;;;;;;;;;;20.50;99.90;;;;;;4592414;19;20259;-33
2022/08/08 05:03:47;;;;;;;;;;;20.50;99.90;;;;;;4593195;19;19935;-32
2022/08/08 05:05:18;;;;;;;;;;;20.50;99.90;;;;;;4593244;19;19935;-34
2022/08/08 05:06:49;;;;;;;;;;;20.60;99.90;;;;;;4591756;19;19942;-34
2022/08/08 05:08:20;;;;;;;;;;;20.60;99.90;;;;;;4591620;19;19923;-33
2022/08/08 05:09:51;;;;;;;;;;;20.50;99.90;;;;;;4592636;19;19915;-39
2022/08/08 05:11:22;;;;;;;;;;;20.50;99.90;;;;;;4591142;19;19910;-37
2022/08/08 05:12:53;;;;;;;;;;;20.50;99.90;;;;;;4592032;19;19918;-33
2022/08/08 05:14:24;;;;;;;;;;;20.60;99.90;;;;;;4592589;19;20317;-34
2022/08/08 05:15:55;;;;;;;;;;;20.50;99.90;;;;;;4592939;19;19921;-32
2022/08/08 05:17:26;;;;;;;;;;;20.60;99.90;;;;;;4592060;19;20328;-35
2022/08/08 05:18:57;;;;;;;;;;;20.60;99.90;;;;;;4592492;19;19919;-35
2022/08/08 05:20:28;;;;;;;;;;;20.50;99.90;;;;;;4592537;19;19918;-33
2022/08/08 05:21:59;;;;;;;;;;;20.60;99.90;;;;;;4593186;19;19919;-36
2022/08/08 05:23:30;;;;;;;;;;;20.50;99.90;;;;;;4592119;19;19911;-33
2022/08/08 05:25:01;;;;;;;;;;;20.50;99.90;;;;;;4592388;19;20225;-36
2022/08/08 05:26:32;;;;;;;;;;;20.50;99.90;;;;;;4592431;19;19914;-38
2022/08/08 05:28:03;;;;;;;;;;;20.50;99.90;;;;;;4592082;19;19926;-40
2022/08/08 05:29:35;;;;;;;;;;;20.50;99.90;;;;;;4591830;19;19925;-33
2022/08/08 05:31:06;;;;;;;;;;;20.50;99.90;;;;;;4591998;19;19941;-34
2022/08/08 05:32:37;;;;;;;;;;;20.50;99.90;;;;;;4592609;19;19941;-41
2022/08/08 05:34:28;;;;;;;;;;;20.50;99.90;;;;;;4589811;19;20311;-34
2022/08/08 05:36:00;;;;;;;;;;;20.60;99.90;;;;;;4590253;19;19966;-38
2022/08/08 05:37:32;;;;;;;;;;;20.50;99.90;;;;;;4591230;19;19915;-34
2022/08/08 05:39:04;;;;;;;;;;;20.50;99.90;;;;;;4589176;19;19915;-35
2022/08/08 05:40:35;;;;;;;;;;;20.50;99.90;;;;;;4589790;19;20252;-40
2022/08/08 05:42:06;;;;;;;;;;;20.60;99.90;;;;;;4589091;19;19951;-35
2022/08/08 05:43:37;;;;;;;;;;;20.60;99.90;;;;;;4590757;19;19994;-32
2022/08/08 05:45:09;;;;;;;;;;;20.60;99.90;;;;;;4592643;19;19911;-40
2022/08/08 05:46:41;;;;;;;;;;;20.60;99.90;;;;;;4591033;19;19914;-38
2022/08/08 05:48:12;;;;;;;;;;;20.60;99.90;;;;;;4590029;19;20301;-34
2022/08/08 05:49:45;;;;;;;;;;;20.60;99.90;;;;;;4591960;19;19921;-37
2022/08/08 05:51:18;;;;;;;;;;;20.60;99.90;;;;;;4589936;19;20337;-33
2022/08/08 05:52:54;;;;;;;;;;;20.60;99.90;;;;;;4589038;19;19986;-38
2022/08/08 05:54:33;;;;;;;;;;;20.60;99.90;;;;;;4589890;19;19915;-33
2022/08/08 05:56:09;;;;;;;;;;;20.60;99.90;;;;;;4588949;19;19986;-32
2022/08/08 05:57:41;;;;;;;;;;;20.60;99.90;;;;;;4591287;19;19910;-39
2022/08/08 05:59:14;;;;;;;;;;;20.60;99.90;;;;;;4590768;19;19914;-39
2022/08/08 06:00:47;;;;;;;;;;;20.60;99.90;;;;;;4590671;19;19911;-38
2022/08/08 06:04:14;;;;;;;;;;;20.60;99.90;;;;;;4591657;19;19915;-34
2022/08/08 06:05:48;;;;;;;;;;;20.60;99.90;;;;;;4592161;19;19926;-41
2022/08/08 06:07:19;;;;;;;;;;;20.60;99.90;;;;;;4590921;19;19923;-33
2022/08/08 06:08:51;;;;;;;;;;;20.60;99.90;;;;;;4589178;19;20325;-33
2022/08/08 06:10:21;;;;;;;;;;;20.60;99.90;;;;;;4592081;19;19949;-42
2022/08/08 06:11:52;;;;;;;;;;;20.60;99.90;;;;;;4590370;19;19922;-40
2022/08/08 06:13:24;;;;;;;;;;;20.60;99.90;;;;;;4591738;19;19918;-39
2022/08/08 06:14:55;;;;;;;;;;;20.60;99.90;;;;;;4591184;19;19927;-34
2022/08/08 06:16:27;;;;;;;;;;;20.60;99.90;;;;;;4591715;19;19923;-42
2022/08/08 06:17:58;;;;;;;;;;;20.60;99.90;;;;;;4588586;19;19978;-33
2022/08/08 06:19:29;;;;;;;;;;;20.60;99.90;;;;;;4591891;19;19931;-34
2022/08/08 06:21:00;;;;;;;;;;;20.60;99.90;;;;;;4591963;19;19919;-36
2022/08/08 06:22:31;;;;;;;;;;;20.70;99.90;;;;;;4591456;19;19950;-32
2022/08/08 06:24:05;;;;;;;;;;;20.70;99.90;;;;;;4590330;19;19919;-34
2022/08/08 06:25:43;;;;;;;;;;;20.70;99.90;;;;;;4591563;19;19927;-33
2022/08/08 06:27:16;;;;;;;;;;;20.70;99.90;;;;;;4589544;19;19964;-33
2022/08/08 06:29:02;;;;;;;;;;;20.70;99.90;;;;;;4590924;19;20005;-35
2022/08/08 06:30:33;;;;;;;;;;;20.70;99.90;;;;;;4590719;19;19975;-40
2022/08/08 06:32:05;;;;;;;;;;;20.70;99.90;;;;;;4588658;19;19930;-32
2022/08/08 06:33:41;;;;;;;;;;;20.70;99.90;;;;;;4590733;19;20366;-34
2022/08/08 06:35:13;;;;;;;;;;;20.70;99.90;;;;;;4590294;19;19925;-33
2022/08/08 06:36:44;;;;;;;;;;;20.80;99.90;;;;;;4590917;19;19918;-35
2022/08/08 06:38:18;;;;;;;;;;;20.80;99.90;;;;;;4590463;19;19922;-33
2022/08/08 06:39:49;;;;;;;;;;;20.80;99.90;;;;;;4588977;19;20238;-34
2022/08/08 06:41:20;;;;;;;;;;;20.80;99.90;;;;;;4591533;19;19907;-33
2022/08/08 06:43:20;;;;;;;;;;;20.80;99.90;;;;;;4589935;19;19923;-32
2022/08/08 06:44:53;;;;;;;;;;;20.90;99.90;;;;;;4591288;19;19949;-42
2022/08/08 06:46:24;;;;;;;;;;;20.90;99.90;;;;;;4589115;19;20260;-34
2022/08/08 06:47:55;;;;;;;;;;;20.90;99.90;;;;;;4592420;19;20542;-33
2022/08/08 06:49:26;;;;;;;;;;;20.90;99.90;;;;;;4591743;19;19917;-31
2022/08/08 06:50:58;;;;;;;;;;;20.90;99.90;;;;;;4592549;19;19918;-38
2022/08/08 06:52:28;;;;;;;;;;;20.90;99.90;;;;;;4592475;19;20317;-38
2022/08/08 06:54:01;;;;;;;;;;;20.90;99.90;;;;;;4592157;19;19994;-35
2022/08/08 06:55:33;;;;;;;;;;;20.90;99.90;;;;;;4595071;19;19910;-39
2022/08/08 06:57:04;;;;;;;;;;;21.00;99.90;;;;;;4593760;19;20264;-35
2022/08/08 06:58:36;;;;;;;;;;;21.00;99.90;;;;;;4595028;19;19952;-36
2022/08/08 07:00:07;;;;;;;;;;;21.00;99.90;;;;;;4592957;19;20387;-34
2022/08/08 07:01:51;;;;;;;;;;;21.10;99.90;;;;;;4592805;19;19911;-43
2022/08/08 07:03:31;;;;;;;;;;;21.20;99.90;;;;;;4593345;19;19911;-34
2022/08/08 07:05:03;;;;;;;;;;;21.30;99.90;;;;;;4593085;19;19932;-44
2022/08/08 07:06:36;;;;;;;;;;;21.20;99.90;;;;;;4593694;19;19918;-40
2022/08/08 07:08:10;;;;;;;;;;;21.20;99.90;;;;;;4592688;19;19915;-40
2022/08/08 07:09:46;;;;;;;;;;;21.20;99.90;;;;;;4592788;19;19907;-40
2022/08/08 07:11:19;;;;;;;;;;;21.20;99.90;;;;;;4592799;19;19915;-35
2022/08/08 07:12:54;;;;;;;;;;;21.20;99.90;;;;;;4592759;19;19993;-41
2022/08/08 07:14:28;;;;;;;;;;;21.20;99.90;;;;;;4593543;19;19914;-33
2022/08/08 07:16:03;;;;;;;;;;;21.30;99.90;;;;;;4592660;19;20391;-38
2022/08/08 07:17:40;;;;;;;;;;;21.30;99.90;;;;;;4593034;19;19950;-39
2022/08/08 07:19:15;;;;;;;;;;;21.30;99.90;;;;;;4592952;19;19919;-34
2022/08/08 07:20:46;;;;;;;;;;;21.40;99.90;;;;;;4592798;19;19911;-33
2022/08/08 07:22:21;;;;;;;;;;;21.50;99.90;;;;;;4592347;19;20008;-33
2022/08/08 07:23:51;;;;;;;;;;;21.50;99.90;;;;;;4592738;19;19918;-35
2022/08/08 07:25:24;;;;;;;;;;;21.10;99.90;;;;;;4592468;19;19911;-38
2022/08/08 07:26:55;;;;;;;;;;;20.70;99.90;;;;;;4593000;19;19914;-38
2022/08/08 07:28:26;;;;;;;;;;;20.50;99.90;;;;;;4592096;19;19998;-33
2022/08/08 07:29:57;;;;;;;;;;;20.30;99.90;;;;;;4592213;19;19994;-31
2022/08/08 07:31:28;;;;;;;;;;;20.20;99.90;;;;;;4593212;19;20251;-34
2022/08/08 07:32:59;;;;;;;;;;;20.10;99.90;;;;;;4592085;19;19915;-41
2022/08/08 07:34:30;;;;;;;;;;;20.10;99.90;;;;;;4592420;19;19919;-34
2022/08/08 07:36:04;;;;;;;;;;;20.10;99.90;;;;;;4592723;19;19911;-35
2022/08/08 07:37:35;;;;;;;;;;;20.10;99.90;;;;;;4592266;19;19936;-32
2022/08/08 07:39:06;;;;;;;;;;;20.10;99.90;;;;;;4592025;19;20278;-34
2022/08/08 07:40:37;;;;;;;;;;;20.10;99.90;;;;;;4592216;19;20002;-35
2022/08/08 07:42:14;;;;;;;;;;;20.10;99.90;;;;;;4592138;19;19919;-36
2022/08/08 07:43:45;;;;;;;;;;;20.10;99.90;;;;;;4592153;19;19945;-34
2022/08/08 07:45:16;;;;;;;;;;;20.10;99.90;;;;;;4591886;19;19925;-34
2022/08/08 07:46:47;;;;;;;;;;;20.10;99.90;;;;;;4592283;19;19915;-33
2022/08/08 07:48:19;;;;;;;;;;;20.10;99.90;;;;;;4591695;19;20303;-34
2022/08/08 07:49:50;;;;;;;;;;;20.10;99.90;;;;;;4592295;19;19926;-33
2022/08/08 07:51:21;;;;;;;;;;;20.20;99.90;;;;;;4593185;19;19932;-33
2022/08/08 07:52:56;;;;;;;;;;;20.20;99.90;;;;;;4594072;19;20317;-39
2022/08/08 07:54:32;;;;;;;;;;;20.10;99.90;;;;;;4592855;19;19966;-34
2022/08/08 07:56:03;;;;;;;;;;;20.20;99.90;;;;;;4592925;19;20349;-33
2022/08/08 07:57:34;;;;;;;;;;;20.00;99.90;;;;;;4592639;19;19915;-33
2022/08/08 07:59:07;;;;;;;;;;;19.90;99.90;;;;;;4590463;19;19914;-34
2022/08/08 08:00:51;;;;;;;;;;;19.90;99.90;;;;;;4592941;19;20341;-37
2022/08/08 08:02:22;;;;;;;;;;;19.90;99.90;;;;;;4593789;19;19923;-32
2022/08/08 08:03:54;;;;;;;;;;;19.80;99.90;;;;;;4592837;19;19917;-32
2022/08/08 08:05:26;;;;;;;;;;;19.80;99.90;;;;;;4593598;19;19970;-33
2022/08/08 08:06:57;;;;;;;;;;;19.80;99.90;;;;;;4593897;19;19918;-41
2022/08/08 08:08:31;;;;;;;;;;;19.80;99.90;;;;;;4593879;19;19986;-37
2022/08/08 08:10:04;;;;;;;;;;;19.80;99.90;;;;;;4592352;19;19915;-33
2022/08/08 08:11:35;;;;;;;;;;;19.70;99.90;;;;;;4593277;19;19911;-33
2022/08/08 08:13:19;;;;;;;;;;;19.80;99.90;;;;;;4592361;19;20331;-32
2022/08/08 08:14:50;;;;;;;;;;;19.80;99.90;;;;;;4593344;19;19919;-33
2022/08/08 08:16:21;;;;;;;;;;;19.70;99.90;;;;;;4593385;19;19914;-33
2022/08/08 08:17:55;;;;;;;;;;;19.70;99.90;;;;;;4593574;19;19911;-38
2022/08/08 08:19:29;;;;;;;;;;;19.70;99.90;;;;;;4592734;19;19911;-33
2022/08/08 08:21:02;;;;;;;;;;;19.70;99.90;;;;;;4593671;19;19911;-32
2022/08/08 08:22:34;;;;;;;;;;;19.70;99.90;;;;;;4593261;19;19978;-32
2022/08/08 08:24:08;;;;;;;;;;;19.70;99.90;;;;;;4593638;19;19927;-33
2022/08/08 08:25:39;;;;;;;;;;;19.70;99.90;;;;;;4592510;19;19919;-37
2022/08/08 08:27:10;;;;;;;;;;;19.70;99.90;;;;;;4592780;19;19911;-34
2022/08/08 08:28:41;;;;;;;;;;;19.70;99.90;;;;;;4591713;19;19911;-38
2022/08/08 08:30:12;;;;;;;;;;;19.70;99.90;;;;;;4592604;19;19923;-33
2022/08/08 08:31:43;;;;;;;;;;;19.70;99.90;;;;;;4592253;19;19914;-34
2022/08/08 08:33:14;;;;;;;;;;;19.70;99.90;;;;;;4592516;19;19939;-33
2022/08/08 08:34:45;;;;;;;;;;;19.70;99.90;;;;;;4593079;19;19921;-30
2022/08/08 08:36:19;;;;;;;;;;;19.70;99.90;;;;;;4592149;19;19922;-35
2022/08/08 08:37:50;;;;;;;;;;;19.70;99.90;;;;;;4593511;19;19931;-33
2022/08/08 08:39:21;;;;;;;;;;;19.70;99.90;;;;;;4592785;19;19911;-37
2022/08/08 08:40:52;;;;;;;;;;;19.70;99.90;;;;;;4593425;19;19919;-33
2022/08/08 08:42:24;;;;;;;;;;;19.70;99.90;;;;;;4592936;19;19974;-37
2022/08/08 08:43:55;;;;;;;;;;;19.60;99.90;;;;;;4592751;19;19919;-33
2022/08/08 08:45:26;;;;;;;;;;;19.70;99.90;;;;;;4591784;19;19919;-39
2022/08/08 08:46:57;;;;;;;2.90;1.30;;;19.70;99.90;;;;;;4592191;19;20266;-33
2022/08/08 08:48:29;;;;;;;1.88;0.90;;;19.60;99.90;;;;;;4590653;19;20025;-33
2022/08/08 08:50:00;;;;;;;4.38;1.60;;;19.70;99.90;;;;;;4590691;19;20023;-37
2022/08/08 08:51:31;;;;;;;3.60;1.00;;;19.60;99.90;;;;;;4591881;19;20312;-33
2022/08/08 08:53:03;;;;;;;;;;;19.70;99.90;;;;;;4591629;19;19919;-33
2022/08/08 08:54:34;;;;;;;;;;;19.70;99.90;;;;;;4590491;19;20363;-32
2022/08/08 08:56:05;;;;;;;;;;;19.70;99.90;;;;;;4592305;19;19918;-33
2022/08/08 08:57:36;;;;;;;;;;;19.70;99.90;;;;;;4592906;19;19919;-39
2022/08/08 08:59:07;;;;;;;;;;;19.70;99.90;;;;;;4591760;19;19925;-39
2022/08/08 09:00:38;;;;;;;;;;;19.70;99.90;;;;;;4591672;19;20013;-33
2022/08/08 09:02:15;;;;;;;;;;;19.70;99.90;;;;;;4591603;19;19919;-36
2022/08/08 09:03:47;;;;;;;;;;;19.70;99.90;;;;;;4592431;19;19919;-34
2022/08/08 09:05:17;;;;;;;;;;;19.70;99.90;;;;;;4591774;19;19911;-36
2022/08/08 09:06:49;;;;;;;;;;;19.70;99.90;;;;;;4591881;19;19918;-32
2022/08/08 09:08:23;;;;;;;;;;;19.80;99.90;;;;;;4590970;19;19934;-38
2022/08/08 09:09:54;;;;;;;;;;;19.80;99.90;;;;;;4591777;19;19970;-37
2022/08/08 09:11:24;;;;;;;;;;;19.80;99.90;;;;;;4592713;19;19922;-41
2022/08/08 09:12:56;;;;;;;;;;;19.80;99.90;;;;;;4591081;19;20263;-36
2022/08/08 09:14:27;;;;;;;;;;;19.80;99.90;;;;;;4591266;19;19922;-39
2022/08/08 09:15:57;;;;;;;;;;;19.80;99.90;;;;;;4591652;19;19966;-32
2022/08/08 09:17:29;;;;;;;;;;;19.80;99.90;;;;;;4592028;19;19970;-34
2022/08/08 09:19:00;;;;;;;;;;;19.80;99.90;;;;;;4591073;19;19982;-39
2022/08/08 09:20:31;;;;;;;;;;;19.80;99.90;;;;;;4591996;19;19921;-36